Time;durP1;ratioP1;P1;durP2;ratioP2;P2;SDS_P1;SDS_P2;PMS_P1;PMS_P2;Temp;Humidity;BMP_temperature;BMP_pressure;BME280_temperature;BME280_humidity;BME280_pressure;Samples;Min_cycle;Max_cycle;Signal;HPM_P1;HPM_P2
2023/03/05 00:01:54;;;;;;;11.98;5.07;;;;;;;;;;5059226;28;20167;-61
2023/03/05 00:04:20;;;;;;;12.65;5.15;;;;;;;;;;5075356;28;20096;-62
2023/03/05 00:06:46;;;;;;;9.32;5.30;;;;;;;;;;5075050;28;20041;-61
2023/03/05 00:09:13;;;;;;;10.73;5.32;;;;;;;;;;5075307;28;20043;-62
2023/03/05 00:11:39;;;;;;;11.27;5.40;;;;;;;;;;5068831;28;20037;-62
2023/03/05 00:14:05;;;;;;;15.10;4.93;;;;;;;;;;5055012;28;20104;-61
2023/03/05 00:16:31;;;;;;;10.75;5.00;;;;;;;;;;5055019;28;20033;-62
2023/03/05 00:18:58;;;;;;;10.20;4.57;;;;;;;;;;5055203;28;20021;-62
2023/03/05 00:21:26;;;;;;;11.02;4.82;;;;;;;;;;5055183;28;20447;-61
2023/03/05 00:23:53;;;;;;;14.73;4.32;;;;;;;;;;5055078;28;20086;-62
2023/03/05 00:26:20;;;;;;;8.57;4.80;;;;;;;;;;5055097;28;20455;-61
2023/03/05 00:28:49;;;;;;;11.85;4.57;;;;;;;;;;5054556;28;20048;-61
2023/03/05 00:31:23;;;;;;;8.73;3.80;;;;;;;;;;5036962;28;20116;-61
2023/03/05 00:33:53;;;;;;;8.30;4.32;;;;;;;;;;5055026;28;20028;-62
2023/03/05 00:36:19;;;;;;;7.13;4.20;;;;;;;;;;5036952;28;20141;-62
2023/03/05 00:38:45;;;;;;;11.20;4.82;;;;;;;;;;5054567;28;20033;-62
2023/03/05 00:41:11;;;;;;;12.25;4.07;;;;;;;;;;5036741;28;20049;-61
2023/03/05 00:43:37;;;;;;;12.10;3.55;;;;;;;;;;5054336;28;20060;-61
2023/03/05 00:46:04;;;;;;;13.35;3.92;;;;;;;;;;5036630;28;20060;-61
2023/03/05 00:48:30;;;;;;;8.75;3.28;;;;;;;;;;5054669;28;20033;-61
2023/03/05 00:50:56;;;;;;;13.13;4.10;;;;;;;;;;5053417;28;20026;-61
2023/03/05 00:53:23;;;;;;;7.75;3.53;;;;;;;;;;5036653;28;20032;-61
2023/03/05 00:55:50;;;;;;;13.00;3.95;;;;;;;;;;5054354;28;20506;-61
2023/03/05 00:58:16;;;;;;;11.63;3.42;;;;;;;;;;5054063;28;20036;-61
2023/03/05 01:00:42;;;;;;;7.82;3.20;;;;;;;;;;5036225;28;20486;-61
2023/03/05 01:03:08;;;;;;;6.10;3.05;;;;;;;;;;5036435;28;20021;-62
2023/03/05 01:05:34;;;;;;;6.57;3.25;;;;;;;;;;5054266;28;20072;-62
2023/03/05 01:08:01;;;;;;;9.85;4.03;;;;;;;;;;5054179;28;20033;-62
2023/03/05 01:10:27;;;;;;;7.72;2.92;;;;;;;;;;5054216;28;20021;-61
2023/03/05 01:12:54;;;;;;;11.68;3.33;;;;;;;;;;5053550;28;20099;-61
2023/03/05 01:15:21;;;;;;;10.65;3.20;;;;;;;;;;5053973;28;20033;-62
2023/03/05 01:17:47;;;;;;;18.65;4.30;;;;;;;;;;5054141;28;20392;-62
2023/03/05 01:20:14;;;;;;;10.68;3.17;;;;;;;;;;5054113;28;20025;-62
2023/03/05 01:22:41;;;;;;;7.07;3.15;;;;;;;;;;5053890;28;20104;-61
2023/03/05 01:25:07;;;;;;;10.48;3.55;;;;;;;;;;5052990;28;20535;-62
2023/03/05 01:27:33;;;;;;;9.88;3.47;;;;;;;;;;5052193;28;20127;-62
2023/03/05 01:30:00;;;;;;;7.35;3.40;;;;;;;;;;5053771;28;20071;-62
2023/03/05 01:32:26;;;;;;;8.57;3.45;;;;;;;;;;5053722;28;20033;-62
2023/03/05 01:34:52;;;;;;;9.48;3.55;;;;;;;;;;5052284;28;20439;-62
2023/03/05 01:37:18;;;;;;;9.02;3.58;;;;;;;;;;5053825;28;20082;-62
2023/03/05 01:39:44;;;;;;;11.25;3.38;;;;;;;;;;5060522;28;20467;-62
2023/03/05 01:42:10;;;;;;;10.02;3.38;;;;;;;;;;5073406;28;20392;-62
2023/03/05 01:44:36;;;;;;;11.45;3.38;;;;;;;;;;5055470;28;20024;-62
2023/03/05 01:47:03;;;;;;;9.10;3.70;;;;;;;;;;5073551;28;20036;-62
2023/03/05 01:49:30;;;;;;;9.35;4.60;;;;;;;;;;5073448;28;20078;-62
2023/03/05 01:51:56;;;;;;;17.08;3.67;;;;;;;;;;5073223;28;20032;-62
2023/03/05 01:54:24;;;;;;;8.65;3.30;;;;;;;;;;5073374;28;20043;-62
2023/03/05 01:56:52;;;;;;;8.50;3.42;;;;;;;;;;5072666;28;20036;-62
2023/03/05 01:59:18;;;;;;;19.45;6.47;;;;;;;;;;5055352;28;20029;-62
2023/03/05 02:01:47;;;;;;;7.20;3.45;;;;;;;;;;5054071;28;20462;-62
2023/03/05 02:04:15;;;;;;;6.88;3.22;;;;;;;;;;5087435;28;20037;-62
2023/03/05 02:06:42;;;;;;;8.80;3.72;;;;;;;;;;5046372;28;20040;-62
2023/03/05 02:09:09;;;;;;;11.32;3.70;;;;;;;;;;5064775;28;20028;-62
2023/03/05 02:11:36;;;;;;;8.95;3.30;;;;;;;;;;5061844;28;20032;-62
2023/03/05 02:14:03;;;;;;;13.48;4.38;;;;;;;;;;5069003;28;20032;-62
2023/03/05 02:16:35;;;;;;;10.55;3.80;;;;;;;;;;5041469;28;20127;-62
2023/03/05 02:19:04;;;;;;;9.10;3.53;;;;;;;;;;5061351;28;20080;-62
2023/03/05 02:21:38;;;;;;;7.05;3.60;;;;;;;;;;5067405;28;20147;-62
2023/03/05 02:24:04;;;;;;;12.90;3.33;;;;;;;;;;5037243;28;20111;-62
2023/03/05 02:26:30;;;;;;;10.02;3.80;;;;;;;;;;5066052;28;20118;-62
2023/03/05 02:28:58;;;;;;;9.05;3.10;;;;;;;;;;5062204;28;20495;-62
2023/03/05 02:31:25;;;;;;;12.30;3.42;;;;;;;;;;5058685;28;20060;-62
2023/03/05 02:33:52;;;;;;;12.48;3.55;;;;;;;;;;5075867;28;20115;-62
2023/03/05 02:36:19;;;;;;;11.30;3.13;;;;;;;;;;5057852;28;20025;-62
2023/03/05 02:38:46;;;;;;;7.97;3.45;;;;;;;;;;5037364;28;20049;-62
2023/03/05 02:41:13;;;;;;;13.25;4.38;;;;;;;;;;5071790;28;20120;-62
2023/03/05 02:43:40;;;;;;;6.20;3.25;;;;;;;;;;5047053;28;20032;-62
2023/03/05 02:46:07;;;;;;;12.35;3.58;;;;;;;;;;5063274;28;20530;-62
2023/03/05 02:48:33;;;;;;;13.30;4.32;;;;;;;;;;5039729;28;20048;-62
2023/03/05 02:51:01;;;;;;;7.47;3.85;;;;;;;;;;5050434;28;20032;-62
2023/03/05 02:53:27;;;;;;;7.47;3.45;;;;;;;;;;5039161;28;20032;-62
2023/03/05 02:55:53;;;;;;;11.27;3.78;;;;;;;;;;5063021;28;20025;-62
2023/03/05 02:58:19;;;;;;;8.23;3.40;;;;;;;;;;5064344;28;20028;-62
2023/03/05 03:00:45;;;;;;;9.98;3.95;;;;;;;;;;5038335;28;20048;-62
2023/03/05 03:03:12;;;;;;;13.48;3.90;;;;;;;;;;5050143;28;20032;-62
2023/03/05 03:05:38;;;;;;;11.80;4.28;;;;;;;;;;5058572;28;20031;-62
2023/03/05 03:08:04;;;;;;;11.65;4.20;;;;;;;;;;5061336;28;20025;-62
2023/03/05 03:10:30;;;;;;;8.68;4.38;;;;;;;;;;5065431;28;20063;-62
2023/03/05 03:12:57;;;;;;;9.80;3.42;;;;;;;;;;5069647;28;20036;-62
2023/03/05 03:15:23;;;;;;;8.45;3.95;;;;;;;;;;5067644;28;20029;-62
2023/03/05 03:17:49;;;;;;;12.18;4.78;;;;;;;;;;5059711;28;20055;-62
2023/03/05 03:20:16;;;;;;;6.10;3.65;;;;;;;;;;5060427;28;20029;-62
2023/03/05 03:22:44;;;;;;;10.75;3.75;;;;;;;;;;5066258;28;20036;-62
2023/03/05 03:25:11;;;;;;;10.18;4.20;;;;;;;;;;5054487;28;20051;-62
2023/03/05 03:27:37;;;;;;;13.40;4.55;;;;;;;;;;5066000;28;20028;-62
2023/03/05 03:30:04;;;;;;;5.60;3.78;;;;;;;;;;5060938;28;20016;-62
2023/03/05 03:32:31;;;;;;;8.90;4.07;;;;;;;;;;5058889;28;20029;-62
2023/03/05 03:34:57;;;;;;;10.60;4.15;;;;;;;;;;5067599;28;20016;-62
2023/03/05 03:37:23;;;;;;;11.45;4.35;;;;;;;;;;5070777;28;20016;-62
2023/03/05 03:39:49;;;;;;;11.63;4.15;;;;;;;;;;5064459;28;20045;-62
2023/03/05 03:42:19;;;;;;;12.15;4.30;;;;;;;;;;5062095;28;20476;-62
2023/03/05 03:44:45;;;;;;;11.30;4.82;;;;;;;;;;5056778;28;20391;-62
2023/03/05 03:47:12;;;;;;;10.93;4.78;;;;;;;;;;5067524;28;20274;-62
2023/03/05 03:49:38;;;;;;;8.90;3.85;;;;;;;;;;5056771;28;20020;-62
2023/03/05 03:52:04;;;;;;;14.10;3.97;;;;;;;;;;5062280;28;20111;-62
2023/03/05 03:54:30;;;;;;;12.00;5.18;;;;;;;;;;5064060;28;20041;-62
2023/03/05 03:56:56;;;;;;;9.80;4.30;;;;;;;;;;5055433;28;20075;-62
2023/03/05 03:59:23;;;;;;;10.25;4.40;;;;;;;;;;5067537;28;20031;-62
2023/03/05 04:01:49;;;;;;;9.90;4.57;;;;;;;;;;5057850;28;20017;-62
2023/03/05 04:04:15;;;;;;;13.25;5.00;;;;;;;;;;5061151;28;20033;-62
2023/03/05 04:06:41;;;;;;;11.30;4.15;;;;;;;;;;5064525;28;20380;-62
2023/03/05 04:09:07;;;;;;;9.63;4.32;;;;;;;;;;5054551;28;20033;-62
2023/03/05 04:11:34;;;;;;;14.25;4.82;;;;;;;;;;5070796;28;20032;-62
2023/03/05 04:14:00;;;;;;;19.10;4.57;;;;;;;;;;5045642;28;20025;-62
2023/03/05 04:16:27;;;;;;;10.80;4.47;;;;;;;;;;5062189;28;20028;-62
2023/03/05 04:18:53;;;;;;;9.27;3.88;;;;;;;;;;5059350;28;20078;-62
2023/03/05 04:21:19;;;;;;;11.43;4.55;;;;;;;;;;5058090;28;20082;-62
2023/03/05 04:23:45;;;;;;;9.88;3.70;;;;;;;;;;5065675;28;20431;-62
2023/03/05 04:26:11;;;;;;;11.40;4.40;;;;;;;;;;5067512;28;20025;-62
2023/03/05 04:28:37;;;;;;;10.75;4.20;;;;;;;;;;5061816;28;20079;-62
2023/03/05 04:31:04;;;;;;;8.02;4.95;;;;;;;;;;5069773;28;20020;-62
2023/03/05 04:33:30;;;;;;;10.70;4.70;;;;;;;;;;5056738;28;20548;-63
2023/03/05 04:35:56;;;;;;;11.40;4.35;;;;;;;;;;5072949;28;20049;-62
2023/03/05 04:38:22;;;;;;;21.17;5.63;;;;;;;;;;5073971;28;20033;-62
2023/03/05 04:40:48;;;;;;;7.68;3.80;;;;;;;;;;5060894;28;20055;-62
2023/03/05 04:43:14;;;;;;;6.22;3.88;;;;;;;;;;5070534;28;20556;-62
2023/03/05 04:45:41;;;;;;;10.73;4.28;;;;;;;;;;5071055;28;20028;-62
2023/03/05 04:48:08;;;;;;;11.35;4.50;;;;;;;;;;5073920;28;20033;-62
2023/03/05 04:50:34;;;;;;;9.13;4.07;;;;;;;;;;5064601;28;20052;-62
2023/03/05 04:53:00;;;;;;;8.55;3.72;;;;;;;;;;5073615;28;20035;-62
2023/03/05 04:55:27;;;;;;;9.98;4.38;;;;;;;;;;5068053;28;20032;-62
2023/03/05 04:57:53;;;;;;;18.02;4.55;;;;;;;;;;5055179;28;20025;-61
2023/03/05 05:00:19;;;;;;;12.27;6.50;;;;;;;;;;5062683;28;20107;-62
2023/03/05 05:02:46;;;;;;;10.82;4.05;;;;;;;;;;5061756;28;20031;-62
2023/03/05 05:05:14;;;;;;;7.80;4.28;;;;;;;;;;5069753;28;20025;-61
2023/03/05 05:07:40;;;;;;;10.82;4.50;;;;;;;;;;5069982;28;20025;-61
2023/03/05 05:10:07;;;;;;;10.02;4.78;;;;;;;;;;5062758;28;20035;-61
2023/03/05 05:12:33;;;;;;;10.02;4.95;;;;;;;;;;5073905;28;20127;-61
2023/03/05 05:15:00;;;;;;;15.18;5.20;;;;;;;;;;5060412;28;20037;-62
2023/03/05 05:17:29;;;;;;;10.27;4.60;;;;;;;;;;5070005;28;20033;-62
2023/03/05 05:19:56;;;;;;;10.18;4.22;;;;;;;;;;5040782;28;20024;-62
2023/03/05 05:22:22;;;;;;;7.47;4.38;;;;;;;;;;5064976;28;20502;-61
2023/03/05 05:24:48;;;;;;;14.25;4.25;;;;;;;;;;5065627;28;20025;-62
2023/03/05 05:27:14;;;;;;;8.65;4.18;;;;;;;;;;5057966;28;20039;-62
2023/03/05 05:29:40;;;;;;;9.82;3.78;;;;;;;;;;5069557;28;20040;-62
2023/03/05 05:32:07;;;;;;;9.90;4.18;;;;;;;;;;5059509;28;20055;-62
2023/03/05 05:34:33;;;;;;;11.90;5.50;;;;;;;;;;5063235;28;20392;-62
2023/03/05 05:36:59;;;;;;;7.85;3.90;;;;;;;;;;5066014;28;20067;-62
2023/03/05 05:39:25;;;;;;;5.22;3.55;;;;;;;;;;5055937;28;20037;-61
2023/03/05 05:41:52;;;;;;;11.30;4.18;;;;;;;;;;5069443;28;20021;-62
2023/03/05 05:44:19;;;;;;;7.85;3.35;;;;;;;;;;5060872;28;20033;-62
2023/03/05 05:46:45;;;;;;;8.80;4.40;;;;;;;;;;5061478;28;20499;-62
2023/03/05 05:49:11;;;;;;;9.30;4.72;;;;;;;;;;5067800;28;20119;-61
2023/03/05 05:51:37;;;;;;;7.90;3.90;;;;;;;;;;5055859;28;20094;-62
2023/03/05 05:54:03;;;;;;;8.38;4.00;;;;;;;;;;5070271;28;20029;-62
2023/03/05 05:56:29;;;;;;;6.90;3.80;;;;;;;;;;5069605;28;20107;-62
2023/03/05 05:58:55;;;;;;;11.60;4.28;;;;;;;;;;5060542;28;20033;-62
2023/03/05 06:01:23;;;;;;;11.18;4.40;;;;;;;;;;5064158;28;20032;-62
2023/03/05 06:03:50;;;;;;;10.63;4.22;;;;;;;;;;5069402;28;20029;-62
2023/03/05 06:06:18;;;;;;;10.73;4.40;;;;;;;;;;5059481;28;20511;-61
2023/03/05 06:08:44;;;;;;;8.00;4.10;;;;;;;;;;5068098;28;20040;-62
2023/03/05 06:11:10;;;;;;;7.68;4.13;;;;;;;;;;5058729;28;20037;-62
2023/03/05 06:13:37;;;;;;;13.43;5.63;;;;;;;;;;5068260;28;20123;-63
2023/03/05 06:16:05;;;;;;;11.10;4.75;;;;;;;;;;5058202;28;20074;-63
2023/03/05 06:18:32;;;;;;;10.30;4.05;;;;;;;;;;5056879;28;20021;-63
2023/03/05 06:20:59;;;;;;;10.98;4.43;;;;;;;;;;5064174;28;20039;-63
2023/03/05 06:23:26;;;;;;;11.13;4.03;;;;;;;;;;5057903;28;20547;-63
2023/03/05 06:25:52;;;;;;;7.13;3.85;;;;;;;;;;5055391;28;20393;-63
2023/03/05 06:28:18;;;;;;;11.32;4.35;;;;;;;;;;5066839;28;20427;-63
2023/03/05 06:30:44;;;;;;;14.48;4.82;;;;;;;;;;5061556;28;20036;-63
2023/03/05 06:33:10;;;;;;;9.18;4.30;;;;;;;;;;5072209;28;20108;-63
2023/03/05 06:35:40;;;;;;;7.55;4.80;;;;;;;;;;5064794;28;20120;-63
2023/03/05 06:38:06;;;;;;;12.07;4.93;;;;;;;;;;5071409;28;20472;-63
2023/03/05 06:40:32;;;;;;;6.80;4.85;;;;;;;;;;5059042;28;20044;-63
2023/03/05 06:42:59;;;;;;;5.80;4.40;;;;;;;;;;5063473;28;20075;-63
2023/03/05 06:45:25;;;;;;;12.40;6.95;;;;;;;;;;5057327;28;20172;-62
2023/03/05 06:47:51;;;;;;;15.35;6.53;;;;;;;;;;5067698;28;20501;-62
2023/03/05 06:50:17;;;;;;;11.25;4.72;;;;;;;;;;5069589;28;20147;-62
2023/03/05 06:52:43;;;;;;;10.30;6.30;;;;;;;;;;5070049;28;20025;-63
2023/03/05 06:55:09;;;;;;;11.23;5.30;;;;;;;;;;5068084;28;20488;-62
2023/03/05 06:57:36;;;;;;;9.93;5.65;;;;;;;;;;5069968;28;20093;-62
2023/03/05 07:00:08;;;;;;;7.30;5.70;;;;;;;;;;5034050;28;20017;-62
2023/03/05 07:02:37;;;;;;;9.57;5.97;;;;;;;;;;5046181;28;20115;-63
2023/03/05 07:05:03;;;;;;;14.40;5.43;;;;;;;;;;5038924;28;20036;-62
2023/03/05 07:07:29;;;;;;;13.50;5.20;;;;;;;;;;5063232;28;20025;-62
2023/03/05 07:09:56;;;;;;;9.40;5.80;;;;;;;;;;5031659;28;20094;-63
2023/03/05 07:12:22;;;;;;;8.10;4.60;;;;;;;;;;5060788;28;20511;-63
2023/03/05 07:14:49;;;;;;;10.98;4.90;;;;;;;;;;5069055;28;20052;-62
2023/03/05 07:17:15;;;;;;;10.68;6.05;;;;;;;;;;5054283;28;20064;-63
2023/03/05 07:19:42;;;;;;;11.85;5.82;;;;;;;;;;5069846;28;20023;-62
2023/03/05 07:22:09;;;;;;;12.88;7.07;;;;;;;;;;5052912;28;20450;-63
2023/03/05 07:24:35;;;;;;;15.52;6.93;;;;;;;;;;5059544;28;20074;-63
2023/03/05 07:27:02;;;;;;;12.13;5.32;;;;;;;;;;5067573;28;20241;-63
2023/03/05 07:29:28;;;;;;;10.40;5.47;;;;;;;;;;5067873;28;20020;-62
2023/03/05 07:31:59;;;;;;;11.05;5.47;;;;;;;;;;5064575;28;20044;-63
2023/03/05 07:34:25;;;;;;;11.90;5.32;;;;;;;;;;5065900;28;20094;-63
2023/03/05 07:36:52;;;;;;;9.07;4.88;;;;;;;;;;5067332;28;20032;-63
2023/03/05 07:39:18;;;;;;;14.15;5.18;;;;;;;;;;5045988;28;20072;-63
2023/03/05 07:41:49;;;;;;;10.57;5.25;;;;;;;;;;5047817;28;20013;-63
2023/03/05 07:44:16;;;;;;;13.50;5.47;;;;;;;;;;5047236;28;20513;-63
2023/03/05 07:46:43;;;;;;;8.38;4.75;;;;;;;;;;5045310;28;20086;-63
2023/03/05 07:49:09;;;;;;;9.82;4.35;;;;;;;;;;5045670;28;20385;-63
2023/03/05 07:51:35;;;;;;;12.20;4.90;;;;;;;;;;5046573;28;20470;-63
2023/03/05 07:54:01;;;;;;;13.27;5.93;;;;;;;;;;5039044;28;20067;-63
2023/03/05 07:56:34;;;;;;;10.70;5.32;;;;;;;;;;5045207;28;20032;-63
2023/03/05 07:59:01;;;;;;;8.50;5.35;;;;;;;;;;5041341;28;20132;-63
2023/03/05 08:01:28;;;;;;;9.35;5.38;;;;;;;;;;5045534;28;20053;-63
2023/03/05 08:03:54;;;;;;;11.45;5.75;;;;;;;;;;5047170;28;20025;-63
2023/03/05 08:06:20;;;;;;;12.50;6.05;;;;;;;;;;5049001;28;20029;-63
2023/03/05 08:08:46;;;;;;;11.48;5.22;;;;;;;;;;5044196;28;20021;-63
2023/03/05 08:11:14;;;;;;;10.48;5.35;;;;;;;;;;5035666;28;20495;-63
2023/03/05 08:13:40;;;;;;;10.75;5.13;;;;;;;;;;5035234;28;20589;-64
2023/03/05 08:16:12;;;;;;;14.73;5.78;;;;;;;;;;5036343;28;20029;-63
2023/03/05 08:18:38;;;;;;;12.55;5.32;;;;;;;;;;5039317;28;20025;-63
2023/03/05 08:21:04;;;;;;;9.32;5.22;;;;;;;;;;5038915;28;20048;-63
2023/03/05 08:23:30;;;;;;;13.50;5.47;;;;;;;;;;5037076;28;20022;-64
2023/03/05 08:25:56;;;;;;;10.07;5.00;;;;;;;;;;5043655;28;20028;-64
2023/03/05 08:28:23;;;;;;;14.20;8.15;;;;;;;;;;5050641;28;20116;-63
2023/03/05 08:30:49;;;;;;;11.25;6.63;;;;;;;;;;5048311;28;20045;-63
2023/03/05 08:33:18;;;;;;;14.95;5.82;;;;;;;;;;5039737;28;20036;-63
2023/03/05 08:35:44;;;;;;;14.27;5.70;;;;;;;;;;5036390;28;20029;-63
2023/03/05 08:38:10;;;;;;;9.32;6.35;;;;;;;;;;5036755;28;20374;-63
2023/03/05 08:40:37;;;;;;;18.77;7.03;;;;;;;;;;5039152;28;20045;-63
2023/03/05 08:43:04;;;;;;;14.57;7.38;;;;;;;;;;5035379;28;20037;-63
2023/03/05 08:45:30;;;;;;;15.05;7.93;;;;;;;;;;5034769;28;20025;-63
2023/03/05 08:47:57;;;;;;;18.23;8.30;;;;;;;;;;5018234;28;20017;-63
2023/03/05 08:50:24;;;;;;;23.95;11.82;;;;;;;;;;5037025;28;20440;-63
2023/03/05 08:52:50;;;;;;;19.80;11.10;;;;;;;;;;5017438;28;20029;-63
2023/03/05 08:55:17;;;;;;;24.63;13.23;;;;;;;;;;5034304;28;20029;-63
2023/03/05 08:57:43;;;;;;;24.15;13.82;;;;;;;;;;5034452;28;20079;-64
2023/03/05 09:00:11;;;;;;;22.90;13.00;;;;;;;;;;5037711;28;20500;-64
2023/03/05 09:02:37;;;;;;;25.23;13.45;;;;;;;;;;5037565;28;20100;-64
2023/03/05 09:05:03;;;;;;;16.48;9.23;;;;;;;;;;5035912;28;20388;-64
2023/03/05 09:07:29;;;;;;;19.88;8.25;;;;;;;;;;5033883;28;20025;-64
2023/03/05 09:09:55;;;;;;;17.75;8.60;;;;;;;;;;5036466;28;20033;-64
2023/03/05 09:12:21;;;;;;;19.52;8.65;;;;;;;;;;5034730;28;20068;-64
2023/03/05 09:14:48;;;;;;;14.73;7.70;;;;;;;;;;5038810;28;20082;-64
2023/03/05 09:17:14;;;;;;;19.70;8.45;;;;;;;;;;5032675;28;20108;-64
2023/03/05 09:19:40;;;;;;;11.73;7.88;;;;;;;;;;5036406;28;20033;-64
2023/03/05 09:22:06;;;;;;;14.50;7.57;;;;;;;;;;5035943;28;20029;-64
2023/03/05 09:24:33;;;;;;;14.52;8.32;;;;;;;;;;5036519;28;20496;-64
2023/03/05 09:26:59;;;;;;;18.88;7.60;;;;;;;;;;5040880;28;20075;-64
2023/03/05 09:29:26;;;;;;;16.42;9.07;;;;;;;;;;5035160;28;20128;-64
2023/03/05 09:31:52;;;;;;;22.58;8.68;;;;;;;;;;5035558;28;20033;-64
2023/03/05 09:34:18;;;;;;;15.90;8.32;;;;;;;;;;5036658;28;20029;-64
2023/03/05 09:36:44;;;;;;;13.00;7.78;;;;;;;;;;5035611;28;20068;-64
2023/03/05 09:39:11;;;;;;;12.45;7.45;;;;;;;;;;5026816;28;20156;-64
2023/03/05 09:41:46;;;;;;;12.30;6.65;;;;;;;;;;5033015;28;20034;-64
2023/03/05 09:44:30;;;;;;;14.60;6.45;;;;;;;;;;5035464;28;20033;-64
2023/03/05 09:47:07;;;;;;;14.45;6.70;;;;;;;;;;5033412;28;20029;-64
2023/03/05 09:49:33;;;;;;;10.75;5.90;;;;;;;;;;5033769;28;20025;-64
2023/03/05 09:52:03;;;;;;;14.15;6.43;;;;;;;;;;5036893;28;20036;-64
2023/03/05 09:54:34;;;;;;;17.13;7.18;;;;;;;;;;5034442;28;20030;-64
2023/03/05 09:57:03;;;;;;;15.85;6.20;;;;;;;;;;5041433;28;20029;-63
2023/03/05 09:59:45;;;;;;;13.07;7.65;;;;;;;;;;5035491;28;20059;-65
2023/03/05 10:02:19;;;;;;;15.27;7.30;;;;;;;;;;5041397;28;20036;-65
2023/03/05 10:04:52;;;;;;;14.70;8.68;;;;;;;;;;5048169;28;20033;-65
2023/03/05 10:07:23;;;;;;;16.80;7.93;;;;;;;;;;5044628;28;20072;-65
2023/03/05 10:09:55;;;;;;;17.20;7.45;;;;;;;;;;5035508;28;20444;-65
2023/03/05 10:12:27;;;;;;;10.50;5.80;;;;;;;;;;5042945;28;20381;-65
2023/03/05 10:14:54;;;;;;;8.13;5.17;;;;;;;;;;5043252;28;20079;-65
2023/03/05 10:17:20;;;;;;;9.23;5.22;;;;;;;;;;5041533;28;20099;-65
2023/03/05 10:19:53;;;;;;;9.90;4.88;;;;;;;;;;5040419;28;20032;-64
2023/03/05 10:22:21;;;;;;;10.18;4.90;;;;;;;;;;5033960;28;20029;-65
2023/03/05 10:24:47;;;;;;;13.55;5.82;;;;;;;;;;5038937;28;20021;-64
2023/03/05 10:27:20;;;;;;;15.10;7.78;;;;;;;;;;5045189;28;20032;-64
2023/03/05 10:29:46;;;;;;;18.88;8.32;;;;;;;;;;5048242;28;20400;-65
2023/03/05 10:32:15;;;;;;;14.38;5.53;;;;;;;;;;5043280;28;20032;-65
2023/03/05 10:34:56;;;;;;;8.70;4.53;;;;;;;;;;5035509;28;20034;-64
2023/03/05 10:37:22;;;;;;;12.23;5.57;;;;;;;;;;5039750;28;20063;-64
2023/03/05 10:39:51;;;;;;;19.02;6.63;;;;;;;;;;5045280;28;20033;-64
2023/03/05 10:42:36;;;;;;;17.35;6.75;;;;;;;;;;5053380;28;20068;-65
2023/03/05 10:45:22;;;;;;;12.10;5.40;;;;;;;;;;5065986;28;20424;-63
2023/03/05 10:48:07;;;;;;;10.18;5.97;;;;;;;;;;5062962;28;20025;-62
2023/03/05 10:50:36;;;;;;;12.98;5.85;;;;;;;;;;5068159;28;20078;-63
2023/03/05 10:53:14;;;;;;;12.07;5.47;;;;;;;;;;5071348;28;20048;-63
2023/03/05 10:55:41;;;;;;;10.45;5.53;;;;;;;;;;5068300;28;20079;-61
2023/03/05 10:58:14;;;;;;;11.23;6.57;;;;;;;;;;5070710;28;20115;-65
2023/03/05 11:00:41;;;;;;;14.38;7.07;;;;;;;;;;5067544;28;20021;-63
2023/03/05 11:03:08;;;;;;;12.02;8.00;;;;;;;;;;5065312;28;20104;-63
2023/03/05 11:05:48;;;;;;;19.45;9.18;;;;;;;;;;5061110;28;20399;-63
2023/03/05 11:08:23;;;;;;;16.73;7.13;;;;;;;;;;5065226;28;20082;-64
2023/03/05 11:11:10;;;;;;;18.60;8.27;;;;;;;;;;5070015;28;20012;-65
2023/03/05 11:14:09;;;;;;;12.80;7.00;;;;;;;;;;5064388;28;20032;-63
2023/03/05 11:16:45;;;;;;;13.95;7.97;;;;;;;;;;4986188;28;20525;-63
2023/03/05 11:19:17;;;;;;;25.55;6.80;;;;;;;;;;4988261;28;20170;-63
2023/03/05 11:21:43;;;;;;;14.15;6.93;;;;;;;;;;4985033;28;20465;-63
2023/03/05 11:24:17;;;;;;;12.18;6.57;;;;;;;;;;4980168;28;20022;-63
2023/03/05 11:26:50;;;;;;;10.30;6.15;;;;;;;;;;4985699;28;20058;-63
2023/03/05 11:29:16;;;;;;;;;;;;;;;;;;4981419;28;20080;-64
2023/03/05 11:31:42;;;;;;;13.02;5.95;;;;;;;;;;4983206;28;19918;-64
2023/03/05 11:34:18;;;;;;;9.50;5.65;;;;;;;;;;4986270;28;20042;-64
2023/03/05 11:36:51;;;;;;;13.18;6.07;;;;;;;;;;4990263;28;20043;-64
2023/03/05 11:39:20;;;;;;;8.48;4.75;;;;;;;;;;4988548;28;20039;-64
2023/03/05 11:41:57;;;;;;;6.85;4.70;;;;;;;;;;4990379;28;20046;-64
2023/03/05 11:44:37;;;;;;;16.20;6.13;;;;;;;;;;4989916;28;20034;-64
2023/03/05 11:47:09;;;;;;;14.13;6.07;;;;;;;;;;4990001;28;20049;-64
2023/03/05 11:49:35;;;;;;;;;;;;;;;;;;4990583;28;20038;-64
2023/03/05 11:52:12;;;;;;;12.95;5.43;;;;;;;;;;5014568;28;19916;-64
2023/03/05 11:54:58;;;;;;;14.43;6.35;;;;;;;;;;5041815;28;20025;-64
2023/03/05 11:57:25;;;;;;;11.50;6.03;;;;;;;;;;5045059;28;20408;-64
2023/03/05 11:59:53;;;;;;;14.48;6.10;;;;;;;;;;5045672;28;20024;-64
2023/03/05 12:02:21;;;;;;;15.98;6.50;;;;;;;;;;5045634;28;20548;-64
2023/03/05 12:04:48;;;;;;;13.57;6.35;;;;;;;;;;5045893;28;20020;-64
2023/03/05 12:07:16;;;;;;;15.48;7.85;;;;;;;;;;5043797;28;20086;-64
2023/03/05 12:09:46;;;;;;;13.50;5.60;;;;;;;;;;5043670;28;20426;-64
2023/03/05 12:12:18;;;;;;;10.40;5.05;;;;;;;;;;5044714;28;20041;-64
2023/03/05 12:14:48;;;;;;;11.63;4.35;;;;;;;;;;5043365;28;20052;-64
2023/03/05 12:17:20;;;;;;;10.80;5.50;;;;;;;;;;5045169;28;20518;-63
2023/03/05 12:19:52;;;;;;;13.75;5.18;;;;;;;;;;5045342;28;20024;-63
2023/03/05 12:22:20;;;;;;;8.20;4.28;;;;;;;;;;5043347;28;20193;-63
2023/03/05 12:24:47;;;;;;;12.48;5.35;;;;;;;;;;5043592;28;20021;-64
2023/03/05 12:27:14;;;;;;;14.95;5.03;;;;;;;;;;5044196;28;20032;-64
2023/03/05 12:29:50;;;;;;;12.13;5.05;;;;;;;;;;5042780;28;20157;-64
2023/03/05 12:32:30;;;;;;;11.25;5.55;;;;;;;;;;5044503;28;20033;-64
2023/03/05 12:35:05;;;;;;;7.72;5.07;;;;;;;;;;5026307;28;20136;-64
2023/03/05 12:37:31;;;;;;;10.18;5.50;;;;;;;;;;5045260;28;20029;-64
2023/03/05 12:39:57;;;;;;;10.30;5.18;;;;;;;;;;5054120;28;20049;-64
2023/03/05 12:42:29;;;;;;;11.45;5.20;;;;;;;;;;5065046;28;20035;-64
2023/03/05 12:45:10;;;;;;;11.23;5.50;;;;;;;;;;5064018;28;21398;-63
2023/03/05 12:47:40;;;;;;;10.48;5.15;;;;;;;;;;5063603;28;20028;-64
2023/03/05 12:50:26;;;;;;;11.55;5.43;;;;;;;;;;5064164;28;20025;-64
2023/03/05 12:53:11;;;;;;;12.75;6.05;;;;;;;;;;5057618;28;20064;-64
2023/03/05 12:55:46;;;;;;;10.82;5.72;;;;;;;;;;5041647;28;20024;-64
2023/03/05 12:58:12;;;;;;;15.02;5.75;;;;;;;;;;5058849;28;20179;-63
2023/03/05 13:00:44;;;;;;;16.42;7.25;;;;;;;;;;5063728;28;20028;-64
2023/03/05 13:03:21;;;;;;;13.57;7.60;;;;;;;;;;5055913;28;20036;-64
2023/03/05 13:05:52;;;;;;;13.43;7.50;;;;;;;;;;5055854;28;20040;-63
2023/03/05 13:08:23;;;;;;;15.90;7.28;;;;;;;;;;5055548;28;20033;-64
2023/03/05 13:11:01;;;;;;;15.55;7.55;;;;;;;;;;5055700;28;20051;-64
2023/03/05 13:13:29;;;;;;;26.13;9.80;;;;;;;;;;5055082;28;20036;-64
2023/03/05 13:15:57;;;;;;;24.05;11.80;;;;;;;;;;5054317;28;20013;-64
2023/03/05 13:18:26;;;;;;;23.00;12.15;;;;;;;;;;5058930;28;20493;-64
2023/03/05 13:21:12;;;;;;;30.77;14.05;;;;;;;;;;5039862;28;20020;-64
2023/03/05 13:23:45;;;;;;;33.85;14.98;;;;;;;;;;5056457;28;20029;-64
2023/03/05 13:26:17;;;;;;;37.25;13.48;;;;;;;;;;5040537;28;20422;-64
2023/03/05 13:29:02;;;;;;;32.47;14.32;;;;;;;;;;5056194;28;20025;-64
2023/03/05 13:31:29;;;;;;;29.98;14.77;;;;;;;;;;5056319;28;20489;-64
2023/03/05 13:34:05;;;;;;;32.45;13.95;;;;;;;;;;5057374;28;20049;-64
2023/03/05 13:36:32;;;;;;;31.23;14.57;;;;;;;;;;5054382;28;20025;-64
2023/03/05 13:38:59;;;;;;;39.40;15.43;;;;;;;;;;5054620;28;20021;-64
2023/03/05 13:41:28;;;;;;;35.17;15.65;;;;;;;;;;5062992;28;20037;-64
2023/03/05 13:43:56;;;;;;;32.00;14.75;;;;;;;;;;5070313;28;20027;-64
2023/03/05 13:46:41;;;;;;;28.65;13.63;;;;;;;;;;5074987;28;20043;-65
2023/03/05 13:49:27;;;;;;;35.42;14.60;;;;;;;;;;5070703;28;20115;-65
2023/03/05 13:51:54;;;;;;;31.67;15.38;;;;;;;;;;5070181;28;20068;-65
2023/03/05 13:54:22;;;;;;;33.47;14.40;;;;;;;;;;5069447;28;20087;-64
2023/03/05 13:56:49;;;;;;;37.38;15.95;;;;;;;;;;5068243;28;20039;-64
2023/03/05 13:59:17;;;;;;;37.45;16.13;;;;;;;;;;5073006;28;20415;-64
2023/03/05 14:01:45;;;;;;;32.78;15.32;;;;;;;;;;5065819;28;20051;-64
2023/03/05 14:04:14;;;;;;;31.77;14.70;;;;;;;;;;5068329;28;20060;-64
2023/03/05 14:07:00;;;;;;;35.83;15.18;;;;;;;;;;5069882;28;20028;-64
2023/03/05 14:09:28;;;;;;;46.65;17.13;;;;;;;;;;5066249;28;20115;-64
2023/03/05 14:11:57;;;;;;;36.97;15.95;;;;;;;;;;5071732;28;20035;-65
2023/03/05 14:14:24;;;;;;;38.08;16.02;;;;;;;;;;5070470;28;20032;-64
2023/03/05 14:16:50;;;;;;;34.95;15.77;;;;;;;;;;5066966;28;20040;-64
2023/03/05 14:19:28;;;;;;;36.72;16.80;;;;;;;;;;5063022;28;20024;-64
2023/03/05 14:21:54;;;;;;;41.33;15.98;;;;;;;;;;5063157;28;20025;-64
2023/03/05 14:24:22;;;;;;;38.60;16.15;;;;;;;;;;5064229;28;20492;-64
2023/03/05 14:26:50;;;;;;;39.83;16.02;;;;;;;;;;5067705;28;20020;-64
2023/03/05 14:29:19;;;;;;;35.88;16.35;;;;;;;;;;5070506;28;20033;-65
2023/03/05 14:31:50;;;;;;;38.17;16.23;;;;;;;;;;5070349;28;20027;-65
2023/03/05 14:34:27;;;;;;;40.17;17.30;;;;;;;;;;5071048;28;20033;-65
2023/03/05 14:36:55;;;;;;;43.17;18.02;;;;;;;;;;5055485;28;20029;-65
2023/03/05 14:39:29;;;;;;;36.08;16.30;;;;;;;;;;5069169;28;20094;-66
2023/03/05 14:41:56;;;;;;;42.17;17.90;;;;;;;;;;5071453;28;20071;-65